Time;durP1;ratioP1;P1;durP2;ratioP2;P2;SDS_P1;SDS_P2;PMS_P1;PMS_P2;Temp;Humidity;BMP_temperature;BMP_pressure;BME280_temperature;BME280_humidity;BME280_pressure;Samples;Min_cycle;Max_cycle;Signal;HPM_P1;HPM_P2
2021/06/22 00:00:32;;;;;;;17.25;5.03;;;24.20;84.80;;;;;;4990141;28;20029;-72
2021/06/22 00:03:02;;;;;;;22.58;4.97;;;24.20;84.70;;;;;;5013934;28;20034;-75
2021/06/22 00:05:29;;;;;;;20.50;4.88;;;24.20;84.90;;;;;;4999990;28;20539;-69
2021/06/22 00:07:56;;;;;;;19.00;5.00;;;24.10;85.00;;;;;;5012714;28;20386;-72
2021/06/22 00:10:28;;;;;;;20.40;4.05;;;24.10;85.20;;;;;;5002185;28;20129;-77
2021/06/22 00:12:55;;;;;;;16.95;4.55;;;24.00;85.20;;;;;;5009648;28;20474;-72
2021/06/22 00:15:24;;;;;;;15.43;4.53;;;24.00;85.50;;;;;;4992786;28;20026;-73
2021/06/22 00:17:50;;;;;;;16.08;4.45;;;24.00;85.50;;;;;;5005696;28;20483;-72
2021/06/22 00:20:18;;;;;;;19.00;3.97;;;23.90;85.40;;;;;;4996212;28;20030;-72
2021/06/22 00:22:44;;;;;;;15.00;4.38;;;23.90;85.30;;;;;;5015660;28;20057;-72
2021/06/22 00:25:11;;;;;;;18.75;4.43;;;23.90;85.20;;;;;;4998855;28;20030;-72
2021/06/22 00:27:37;;;;;;;18.45;5.25;;;23.90;84.70;;;;;;5012756;28;20041;-73
2021/06/22 00:30:07;;;;;;;13.70;3.95;;;23.80;84.10;;;;;;5013700;28;20026;-78
2021/06/22 00:32:33;;;;;;;20.30;4.18;;;23.90;83.90;;;;;;4996243;28;20022;-79
2021/06/22 00:34:59;;;;;;;17.42;4.55;;;23.80;83.80;;;;;;5015706;28;20053;-73
2021/06/22 00:37:25;;;;;;;12.10;3.97;;;23.80;83.70;;;;;;5002434;28;20034;-73
2021/06/22 00:39:50;;;;;;;14.43;4.28;;;23.80;83.50;;;;;;5004634;28;20019;-72
2021/06/22 00:42:16;;;;;;;15.38;3.90;;;23.70;83.00;;;;;;4994147;28;20033;-72
2021/06/22 00:44:53;;;;;;;11.65;3.28;;;23.70;82.60;;;;;;4998060;28;20029;-72
2021/06/22 00:47:20;;;;;;;18.73;4.18;;;23.70;81.70;;;;;;5013426;28;20061;-71
2021/06/22 00:49:49;;;;;;;14.07;3.47;;;23.70;81.20;;;;;;5006995;28;20476;-70
2021/06/22 00:52:18;;;;;;;14.07;3.95;;;23.70;80.50;;;;;;4979463;28;20400;-71
2021/06/22 00:54:44;;;;;;;16.05;3.80;;;23.70;79.90;;;;;;4988550;28;20376;-71
2021/06/22 00:57:10;;;;;;;14.68;3.33;;;23.70;79.60;;;;;;5001189;28;20040;-70
2021/06/22 00:59:36;;;;;;;13.93;3.70;;;23.70;79.00;;;;;;5015573;28;20101;-73
2021/06/22 01:02:03;;;;;;;16.52;3.67;;;23.60;78.90;;;;;;5018122;28;20113;-74
2021/06/22 01:04:29;;;;;;;16.77;4.22;;;23.60;78.60;;;;;;4998482;28;20396;-70
2021/06/22 01:06:59;;;;;;;16.80;3.78;;;23.60;78.90;;;;;;5012666;28;20044;-71
2021/06/22 01:09:28;;;;;;;12.82;4.80;;;23.50;78.90;;;;;;5015251;28;20021;-71
2021/06/22 01:11:53;;;;;;;11.77;3.53;;;23.50;79.20;;;;;;4997496;28;20127;-71
2021/06/22 01:14:19;;;;;;;16.55;3.72;;;23.50;79.50;;;;;;5011207;28;20468;-72
2021/06/22 01:16:45;;;;;;;11.15;3.55;;;23.50;79.80;;;;;;5009597;28;20472;-70
2021/06/22 01:19:11;;;;;;;15.68;4.25;;;23.40;80.20;;;;;;4997726;28;20030;-71
2021/06/22 01:21:38;;;;;;;12.75;4.05;;;23.40;80.70;;;;;;5015975;28;20026;-70
2021/06/22 01:24:09;;;;;;;15.20;4.43;;;23.40;81.20;;;;;;5028985;28;20060;-72
2021/06/22 01:26:36;;;;;;;11.52;4.28;;;23.40;81.30;;;;;;4988854;28;20034;-71
2021/06/22 01:29:04;;;;;;;15.07;4.20;;;23.40;81.40;;;;;;5002688;28;20057;-71
2021/06/22 01:31:30;;;;;;;11.85;3.50;;;23.40;81.50;;;;;;5011736;28;20033;-73
2021/06/22 01:33:56;;;;;;;15.00;4.00;;;23.40;81.30;;;;;;5015144;28;20030;-70
2021/06/22 01:36:21;;;;;;;17.00;4.22;;;23.50;81.00;;;;;;4997828;28;20030;-70
2021/06/22 01:38:48;;;;;;;15.90;3.47;;;23.50;80.70;;;;;;5026708;28;20084;-72
2021/06/22 01:41:14;;;;;;;14.52;3.70;;;23.60;79.90;;;;;;5011908;28;20109;-72
2021/06/22 01:43:39;;;;;;;20.77;4.70;;;23.60;79.10;;;;;;5012327;28;20053;-71
2021/06/22 01:46:05;;;;;;;14.80;3.53;;;23.60;78.50;;;;;;5012569;28;20113;-69
2021/06/22 01:48:31;;;;;;;12.52;4.07;;;23.70;78.30;;;;;;5012772;28;20042;-72
2021/06/22 01:50:58;;;;;;;15.85;3.85;;;23.70;77.90;;;;;;5015668;28;20037;-72
2021/06/22 01:53:24;;;;;;;12.55;3.50;;;23.70;78.00;;;;;;4991833;28;20053;-75
2021/06/22 01:55:51;;;;;;;14.75;3.42;;;23.80;78.10;;;;;;5015729;28;20026;-71
2021/06/22 01:58:19;;;;;;;13.70;3.83;;;23.70;78.30;;;;;;5010403;28;20037;-71
2021/06/22 02:00:48;;;;;;;14.02;3.70;;;23.70;78.70;;;;;;5011195;28;20464;-73
2021/06/22 02:03:20;;;;;;;12.18;3.78;;;23.80;79.10;;;;;;4994597;28;20026;-78
2021/06/22 02:05:47;;;;;;;11.48;4.63;;;23.80;79.20;;;;;;5001702;28;20132;-72
2021/06/22 02:08:17;;;;;;;12.93;3.78;;;23.80;79.20;;;;;;4998249;28;20027;-72
2021/06/22 02:10:44;;;;;;;13.45;3.67;;;23.80;78.90;;;;;;5013221;28;20030;-78
2021/06/22 02:13:10;;;;;;;11.50;2.85;;;23.90;78.50;;;;;;5008184;28;20057;-77
2021/06/22 02:15:36;;;;;;;10.30;3.38;;;23.90;77.70;;;;;;4979599;28;20034;-75
2021/06/22 02:18:02;;;;;;;14.73;3.22;;;23.90;77.10;;;;;;4994384;28;20049;-74
2021/06/22 02:20:28;;;;;;;12.43;3.63;;;24.00;76.60;;;;;;5003235;28;20041;-72
2021/06/22 02:22:54;;;;;;;11.30;3.33;;;24.00;76.30;;;;;;5014559;28;20041;-73
2021/06/22 02:25:20;;;;;;;14.07;3.05;;;24.00;76.20;;;;;;4999747;28;20431;-73
2021/06/22 02:27:46;;;;;;;17.00;6.10;;;24.00;75.40;;;;;;4989412;28;20053;-72
2021/06/22 02:30:15;;;;;;;13.13;3.13;;;24.00;74.50;;;;;;4996752;28;20389;-73
2021/06/22 02:32:41;;;;;;;9.13;3.10;;;24.00;73.60;;;;;;4987646;28;20495;-73
2021/06/22 02:35:09;;;;;;;15.20;3.72;;;24.10;73.40;;;;;;4982419;28;20042;-74
2021/06/22 02:37:39;;;;;;;11.93;3.50;;;24.10;73.00;;;;;;4988960;28;20030;-72
2021/06/22 02:40:06;;;;;;;13.50;2.85;;;24.10;72.70;;;;;;4991843;28;20022;-72
2021/06/22 02:42:32;;;;;;;11.43;3.00;;;24.20;72.30;;;;;;4989268;28;20035;-78
2021/06/22 02:44:58;;;;;;;11.35;2.72;;;24.20;72.10;;;;;;4982182;28;20027;-73
2021/06/22 02:47:23;;;;;;;14.45;3.67;;;24.20;71.90;;;;;;4985581;28;20061;-71
2021/06/22 02:49:50;;;;;;;13.80;3.45;;;24.30;71.80;;;;;;4992936;28;20056;-76
2021/06/22 02:52:16;;;;;;;9.48;2.80;;;24.30;71.70;;;;;;5013759;28;20022;-72
2021/06/22 02:54:42;;;;;;;19.80;3.60;;;24.30;71.60;;;;;;4995601;28;20033;-72
2021/06/22 02:57:09;;;;;;;19.50;3.30;;;24.40;71.30;;;;;;4994137;28;20412;-71
2021/06/22 02:59:36;;;;;;;12.45;3.13;;;24.40;71.30;;;;;;4976522;28;20030;-69
2021/06/22 03:02:03;;;;;;;17.63;6.78;;;24.50;71.10;;;;;;4991290;28;20469;-75
2021/06/22 03:04:29;;;;;;;12.63;5.45;;;24.50;70.90;;;;;;4975793;28;20672;-71
2021/06/22 03:06:55;;;;;;;15.45;3.55;;;24.50;70.70;;;;;;4987856;28;20131;-71
2021/06/22 03:09:21;;;;;;;15.27;3.83;;;24.60;70.90;;;;;;4990100;28;20043;-72
2021/06/22 03:11:48;;;;;;;11.13;3.45;;;24.60;70.90;;;;;;4972566;28;20054;-71
2021/06/22 03:14:14;;;;;;;14.18;3.53;;;24.70;70.60;;;;;;4988034;28;20029;-72
2021/06/22 03:16:40;;;;;;;10.52;2.75;;;24.70;70.10;;;;;;5012644;28;20452;-76
2021/06/22 03:19:05;;;;;;;12.38;3.20;;;24.60;69.60;;;;;;4994780;28;20026;-79
2021/06/22 03:21:31;;;;;;;12.98;3.08;;;24.60;69.20;;;;;;4997719;28;20057;-76
2021/06/22 03:23:57;;;;;;;17.88;3.20;;;24.60;69.40;;;;;;5012955;28;20030;-81
2021/06/22 03:26:23;;;;;;;10.90;3.55;;;24.60;69.20;;;;;;4995781;28;20033;-78
2021/06/22 03:28:48;;;;;;;9.93;3.55;;;24.60;69.10;;;;;;4994640;28;20504;-75
2021/06/22 03:31:14;;;;;;;18.48;3.70;;;24.70;69.00;;;;;;4992375;28;20028;-76
2021/06/22 03:33:40;;;;;;;18.63;3.20;;;24.70;68.90;;;;;;4994906;28;20030;-77
2021/06/22 03:36:06;;;;;;;10.15;3.40;;;24.70;68.90;;;;;;4980296;28;20236;-72
2021/06/22 03:38:32;;;;;;;11.32;3.30;;;24.70;68.80;;;;;;4990137;28;20388;-72
2021/06/22 03:40:58;;;;;;;16.50;3.30;;;24.70;69.00;;;;;;4997128;28;20022;-73
2021/06/22 03:43:24;;;;;;;13.57;3.80;;;24.70;69.10;;;;;;4991325;28;20146;-78
2021/06/22 03:45:50;;;;;;;15.90;3.17;;;24.70;69.80;;;;;;4991013;28;20436;-70
2021/06/22 03:48:15;;;;;;;12.30;3.15;;;24.70;69.30;;;;;;5012538;28;20384;-79
2021/06/22 03:50:41;;;;;;;13.70;3.10;;;24.70;69.30;;;;;;4995414;28;20026;-73
2021/06/22 03:53:07;;;;;;;15.90;3.25;;;24.80;69.10;;;;;;4994373;28;20022;-75
2021/06/22 03:55:33;;;;;;;13.02;3.42;;;24.90;68.90;;;;;;5011083;28;20034;-72
2021/06/22 03:58:01;;;;;;;26.55;11.18;;;25.00;68.60;;;;;;5007450;28;20380;-74
2021/06/22 04:00:28;;;;;;;14.20;4.20;;;25.10;68.50;;;;;;5010762;28;20026;-76
2021/06/22 04:02:59;;;;;;;13.60;4.00;;;25.10;68.40;;;;;;5008131;28;20038;-75
2021/06/22 04:05:28;;;;;;;17.77;3.50;;;25.10;68.10;;;;;;4999242;28;20045;-73
2021/06/22 04:07:54;;;;;;;17.15;3.50;;;25.20;68.10;;;;;;5012360;28;20041;-75
2021/06/22 04:10:20;;;;;;;13.13;3.63;;;25.40;67.70;;;;;;4993699;28;20376;-77
2021/06/22 04:12:46;;;;;;;14.25;3.50;;;25.50;67.10;;;;;;5012082;28;20041;-77
2021/06/22 04:15:12;;;;;;;8.85;3.17;;;25.60;66.50;;;;;;5011090;28;20062;-76
2021/06/22 04:17:37;;;;;;;12.82;3.75;;;25.60;66.30;;;;;;5009472;28;20026;-76
2021/06/22 04:20:05;;;;;;;16.98;3.55;;;25.60;66.10;;;;;;4994938;28;20429;-76
2021/06/22 04:22:30;;;;;;;12.23;2.85;;;25.70;66.30;;;;;;5011673;28;20040;-72
2021/06/22 04:24:56;;;;;;;17.77;4.20;;;25.60;66.20;;;;;;5011814;28;20029;-74
2021/06/22 04:27:22;;;;;;;12.55;3.30;;;25.60;66.20;;;;;;5011812;28;20113;-79
2021/06/22 04:29:48;;;;;;;12.73;3.55;;;25.50;66.20;;;;;;5009712;28;20026;-79
2021/06/22 04:32:14;;;;;;;13.52;4.28;;;25.50;66.40;;;;;;5009970;28;20030;-73
2021/06/22 04:34:40;;;;;;;16.42;4.15;;;25.50;66.50;;;;;;5011754;28;20087;-72
2021/06/22 04:37:06;;;;;;;11.75;2.95;;;25.40;66.30;;;;;;5007841;28;20472;-73
2021/06/22 04:39:31;;;;;;;23.90;6.05;;;25.40;66.20;;;;;;5003395;28;20468;-70
2021/06/22 04:41:57;;;;;;;12.05;6.00;;;25.30;65.80;;;;;;5005864;28;20036;-77
2021/06/22 04:44:23;;;;;;;12.88;3.95;;;25.10;65.80;;;;;;5005904;28;20500;-73
2021/06/22 04:46:49;;;;;;;16.75;3.88;;;24.90;66.40;;;;;;4993924;28;20041;-72
2021/06/22 04:49:14;;;;;;;16.88;4.28;;;24.80;66.80;;;;;;4984874;28;20087;-75
2021/06/22 04:51:58;;;;;;;16.50;3.90;;;24.80;67.20;;;;;;5015727;28;20084;-72
2021/06/22 04:54:33;;;;;;;19.00;3.88;;;24.70;67.20;;;;;;4996654;28;20106;-73
2021/06/22 04:57:00;;;;;;;12.50;3.42;;;24.70;67.30;;;;;;4992721;28;20030;-70
2021/06/22 04:59:26;;;;;;;15.50;3.50;;;24.60;67.50;;;;;;4991543;28;20179;-75
2021/06/22 05:01:52;;;;;;;16.75;3.60;;;24.50;67.50;;;;;;5004108;28;20056;-77
2021/06/22 05:04:20;;;;;;;16.75;4.30;;;24.50;67.30;;;;;;4995998;28;20034;-70
2021/06/22 05:06:46;;;;;;;20.17;3.80;;;24.50;67.60;;;;;;5012795;28;20124;-79
2021/06/22 05:09:11;;;;;;;21.15;3.95;;;24.50;67.40;;;;;;5002651;28;20105;-76
2021/06/22 05:11:37;;;;;;;28.08;5.07;;;24.60;67.30;;;;;;5011258;28;20449;-75
2021/06/22 05:14:03;;;;;;;16.90;5.03;;;24.70;66.90;;;;;;5013383;28;20025;-70
2021/06/22 05:16:29;;;;;;;30.65;6.18;;;24.80;66.90;;;;;;5002182;28;20361;-85
2021/06/22 05:18:54;;;;;;;26.67;8.00;;;25.00;66.70;;;;;;4985134;28;20074;-71
2021/06/22 05:21:20;;;;;;;17.83;4.82;;;25.30;66.50;;;;;;4985766;28;20041;-72
2021/06/22 05:23:46;;;;;;;18.77;4.75;;;25.50;66.50;;;;;;4998208;28;20500;-70
2021/06/22 05:26:12;;;;;;;19.85;4.25;;;25.70;66.20;;;;;;4980561;28;20042;-80
2021/06/22 05:28:37;;;;;;;20.88;3.92;;;26.00;66.40;;;;;;4977231;28;20049;-74
2021/06/22 05:31:03;;;;;;;15.20;4.00;;;26.60;66.00;;;;;;5009011;28;20022;-71
2021/06/22 05:33:29;;;;;;;16.00;4.20;;;27.20;65.10;;;;;;5010662;28;20026;-65
2021/06/22 05:35:54;;;;;;;15.82;3.63;;;27.80;64.00;;;;;;5003854;28;20030;-69
2021/06/22 05:38:20;;;;;;;18.17;4.15;;;28.30;62.90;;;;;;5009235;28;20042;-67
2021/06/22 05:40:46;;;;;;;17.38;3.92;;;28.80;61.50;;;;;;4990315;28;20446;-66
2021/06/22 05:43:11;;;;;;;21.23;5.28;;;29.20;60.40;;;;;;4996802;28;20483;-67
2021/06/22 05:45:37;;;;;;;24.67;4.45;;;29.40;58.80;;;;;;4996523;28;20552;-69
2021/06/22 05:48:03;;;;;;;18.17;3.92;;;29.60;57.80;;;;;;4993700;28;20030;-71
2021/06/22 05:50:29;;;;;;;22.23;3.88;;;29.70;56.90;;;;;;4990099;28;20021;-67
2021/06/22 05:52:56;;;;;;;22.50;4.40;;;29.70;56.50;;;;;;4994763;28;20380;-68
2021/06/22 05:55:21;;;;;;;26.65;5.07;;;29.80;55.80;;;;;;4996753;28;20036;-67
2021/06/22 05:57:48;;;;;;;27.38;4.70;;;29.80;55.90;;;;;;4995517;28;20165;-70
2021/06/22 06:00:20;;;;;;;22.88;4.03;;;30.00;55.70;;;;;;4998629;28;20083;-64
2021/06/22 06:02:46;;;;;;;24.88;4.63;;;30.00;55.30;;;;;;5009556;28;20033;-68
2021/06/22 06:05:13;;;;;;;27.17;4.57;;;30.00;55.00;;;;;;4994426;28;20018;-68
2021/06/22 06:07:39;;;;;;;22.52;4.35;;;30.20;54.80;;;;;;5013421;28;20109;-67
2021/06/22 06:10:07;;;;;;;25.70;4.38;;;30.20;54.60;;;;;;5013110;28;20030;-66
2021/06/22 06:12:33;;;;;;;31.25;5.03;;;30.50;54.50;;;;;;5013889;28;20115;-67
2021/06/22 06:14:59;;;;;;;28.23;5.50;;;30.50;54.30;;;;;;4997415;28;20112;-66
2021/06/22 06:17:25;;;;;;;29.00;5.88;;;30.40;54.40;;;;;;4997037;28;20030;-65
2021/06/22 06:19:51;;;;;;;31.70;5.40;;;30.50;54.70;;;;;;5025024;28;20041;-68
2021/06/22 06:22:17;;;;;;;26.85;4.57;;;30.70;54.10;;;;;;5014094;28;20468;-63
2021/06/22 06:24:45;;;;;;;29.02;5.30;;;30.80;54.10;;;;;;5014616;28;20021;-65
2021/06/22 06:29:59;;;;;;;29.13;4.75;;;30.70;52.80;;;;;;5014993;28;20442;-67
2021/06/22 06:32:25;;;;;;;33.10;5.15;;;30.80;52.60;;;;;;4996551;28;20026;-67
2021/06/22 06:34:50;;;;;;;44.65;5.65;;;30.70;52.80;;;;;;4996745;28;20510;-67
2021/06/22 06:37:16;;;;;;;30.92;6.30;;;30.80;53.20;;;;;;5014337;28;20076;-67
2021/06/22 06:39:43;;;;;;;40.67;6.35;;;30.80;53.10;;;;;;4996709;28;20116;-67
2021/06/22 06:42:09;;;;;;;33.90;4.63;;;30.80;52.90;;;;;;4996622;28;20505;-68
2021/06/22 06:44:35;;;;;;;37.97;5.93;;;30.80;52.30;;;;;;4996654;28;20022;-67
2021/06/22 06:47:02;;;;;;;41.50;7.15;;;30.70;52.70;;;;;;5014040;28;20116;-66
2021/06/22 06:49:27;;;;;;;29.90;6.47;;;30.80;52.60;;;;;;4995881;28;20121;-68
2021/06/22 06:51:53;;;;;;;34.22;5.80;;;30.80;52.60;;;;;;4996318;28;20113;-68
2021/06/22 06:54:19;;;;;;;32.75;5.68;;;30.80;52.60;;;;;;5013851;28;20022;-67
2021/06/22 06:56:44;;;;;;;43.00;5.90;;;30.80;52.70;;;;;;5013715;28;20029;-67
2021/06/22 06:59:10;;;;;;;41.10;5.82;;;31.00;52.00;;;;;;4996813;28;20088;-67
2021/06/22 07:01:36;;;;;;;36.10;5.45;;;30.90;51.20;;;;;;4979761;28;20025;-67
2021/06/22 07:04:02;;;;;;;49.55;6.72;;;30.90;50.70;;;;;;5013504;28;20084;-70
2021/06/22 07:06:27;;;;;;;35.30;5.78;;;30.80;50.70;;;;;;4995801;28;20038;-67
2021/06/22 07:08:53;;;;;;;29.08;5.07;;;30.60;50.50;;;;;;5013531;28;20076;-66
2021/06/22 07:11:21;;;;;;;34.67;6.78;;;30.60;50.20;;;;;;4996188;28;20107;-69
2021/06/22 07:13:48;;;;;;;37.92;8.90;;;30.60;50.40;;;;;;5012573;28;20033;-65
2021/06/22 07:16:14;;;;;;;35.65;5.78;;;30.70;50.60;;;;;;5013411;28;20030;-66
2021/06/22 07:18:39;;;;;;;44.70;6.35;;;30.80;50.20;;;;;;4995917;28;20033;-63
2021/06/22 07:21:05;;;;;;;36.78;5.95;;;30.80;50.20;;;;;;5013181;28;20030;-66
2021/06/22 07:23:31;;;;;;;42.47;5.88;;;30.90;50.10;;;;;;4996096;28;20526;-68
2021/06/22 07:25:56;;;;;;;37.95;5.50;;;30.90;50.20;;;;;;4995649;28;20021;-67
2021/06/22 07:28:22;;;;;;;39.10;5.90;;;30.90;49.80;;;;;;4995596;28;20030;-66
2021/06/22 07:30:48;;;;;;;39.65;5.97;;;30.80;50.00;;;;;;5013320;28;20030;-68
2021/06/22 07:33:15;;;;;;;38.65;6.07;;;30.80;50.00;;;;;;4995751;28;20076;-67
2021/06/22 07:35:43;;;;;;;39.70;6.60;;;30.70;50.80;;;;;;4995551;28;20781;-68
2021/06/22 07:38:09;;;;;;;37.80;6.18;;;30.90;51.00;;;;;;4995690;28;20033;-68
2021/06/22 07:40:35;;;;;;;45.15;5.97;;;31.00;50.80;;;;;;5013414;28;20022;-68
2021/06/22 07:43:00;;;;;;;42.42;6.85;;;31.20;50.30;;;;;;5009241;28;20023;-68
2021/06/22 07:45:26;;;;;;;47.15;6.40;;;31.20;50.50;;;;;;5009881;28;20037;-68
2021/06/22 07:47:54;;;;;;;40.40;6.65;;;31.40;50.60;;;;;;4995268;28;20087;-69
2021/06/22 07:50:21;;;;;;;48.80;6.97;;;31.40;49.70;;;;;;4995176;28;20487;-67
2021/06/22 07:52:46;;;;;;;45.80;8.32;;;31.30;49.70;;;;;;5013230;28;20479;-68
2021/06/22 07:55:15;;;;;;;49.50;9.75;;;31.20;49.90;;;;;;5013387;28;20030;-72
2021/06/22 07:57:45;;;;;;;47.10;8.40;;;31.20;50.40;;;;;;5013319;28;20036;-68
2021/06/22 08:00:26;;;;;;;42.72;6.65;;;31.30;50.40;;;;;;4995719;28;20022;-68
2021/06/22 08:02:52;;;;;;;51.05;7.25;;;31.50;50.00;;;;;;4995951;28;20108;-68
2021/06/22 08:05:17;;;;;;;38.63;6.38;;;31.50;49.70;;;;;;5012992;28;20510;-68
2021/06/22 08:07:43;;;;;;;50.25;6.50;;;31.50;49.40;;;;;;5013209;28;20041;-67
2021/06/22 08:10:09;;;;;;;38.58;5.97;;;31.40;49.30;;;;;;5012859;28;20041;-66
2021/06/22 08:12:34;;;;;;;47.42;7.85;;;31.30;49.90;;;;;;4994973;28;20041;-67
2021/06/22 08:15:01;;;;;;;44.53;6.00;;;31.40;50.50;;;;;;5012971;28;20029;-67
2021/06/22 08:17:26;;;;;;;39.17;7.07;;;31.50;50.10;;;;;;4994878;28;20448;-67
2021/06/22 08:19:52;;;;;;;47.80;7.57;;;31.60;50.60;;;;;;4995457;28;20030;-66
2021/06/22 08:22:18;;;;;;;49.00;6.07;;;31.60;51.00;;;;;;4994730;28;20034;-66
2021/06/22 08:24:43;;;;;;;48.22;7.50;;;31.70;50.40;;;;;;4997690;28;20036;-67
2021/06/22 08:27:09;;;;;;;49.65;7.57;;;31.60;50.70;;;;;;5016579;28;20475;-65
2021/06/22 08:29:34;;;;;;;57.97;7.78;;;31.70;50.80;;;;;;4998816;28;20464;-67
2021/06/22 08:32:00;;;;;;;54.08;8.85;;;31.90;51.10;;;;;;5016550;28;20029;-69
2021/06/22 08:34:27;;;;;;;43.67;6.82;;;32.00;50.80;;;;;;5016374;28;20262;-68
2021/06/22 08:36:52;;;;;;;44.33;7.82;;;32.00;50.60;;;;;;4998906;28;20112;-68
2021/06/22 08:39:18;;;;;;;56.08;9.25;;;32.00;51.40;;;;;;5016216;28;20101;-68
2021/06/22 08:41:46;;;;;;;38.72;6.63;;;32.20;51.00;;;;;;5016428;28;20033;-68
2021/06/22 08:44:14;;;;;;;46.25;7.15;;;32.30;51.10;;;;;;4998437;28;20121;-68
2021/06/22 08:46:40;;;;;;;45.05;7.78;;;32.30;50.70;;;;;;4999078;28;20049;-68
2021/06/22 08:49:07;;;;;;;45.33;8.07;;;32.30;50.50;;;;;;4998884;28;20029;-67
2021/06/22 08:51:34;;;;;;;48.95;6.65;;;32.30;50.90;;;;;;4994954;28;20468;-66
2021/06/22 08:54:00;;;;;;;49.58;7.78;;;32.40;50.60;;;;;;4998923;28;20041;-67
2021/06/22 08:56:25;;;;;;;57.45;8.13;;;32.40;50.40;;;;;;5015821;28;20041;-67
2021/06/22 08:58:52;;;;;;;50.80;8.20;;;32.30;50.20;;;;;;5016124;28;20034;-67
2021/06/22 09:01:18;;;;;;;51.80;8.90;;;32.40;50.60;;;;;;5016004;28;20097;-68
2021/06/22 09:03:44;;;;;;;53.17;6.95;;;32.50;50.30;;;;;;5016286;28;20018;-67
2021/06/22 09:06:09;;;;;;;53.60;8.30;;;32.60;49.90;;;;;;4998214;28;20032;-67
2021/06/22 09:08:35;;;;;;;43.10;7.38;;;32.60;50.20;;;;;;4998250;28;20431;-66
2021/06/22 09:11:14;;;;;;;47.83;7.63;;;32.80;50.40;;;;;;5016165;28;20034;-67
2021/06/22 09:13:43;;;;;;;46.40;8.48;;;32.90;49.60;;;;;;5015766;28;20030;-67
2021/06/22 09:16:12;;;;;;;48.65;7.78;;;33.00;50.10;;;;;;5015664;28;20109;-67
2021/06/22 09:18:42;;;;;;;49.78;7.40;;;33.10;50.20;;;;;;4998507;28;20084;-66
2021/06/22 09:21:18;;;;;;;54.33;7.88;;;33.30;50.40;;;;;;5016274;28;20041;-65
2021/06/22 09:23:45;;;;;;;44.17;7.68;;;33.50;50.80;;;;;;5015684;28;20026;-68
2021/06/22 09:26:17;;;;;;;54.95;8.18;;;33.70;49.80;;;;;;5015399;28;20029;-67
2021/06/22 09:28:44;;;;;;;59.35;11.90;;;33.70;49.80;;;;;;5015755;28;20376;-63
2021/06/22 09:31:14;;;;;;;49.58;7.35;;;33.80;49.80;;;;;;5015536;28;20026;-65
2021/06/22 09:33:43;;;;;;;44.75;7.32;;;34.00;49.10;;;;;;5015608;28;20030;-66
2021/06/22 09:36:14;;;;;;;51.55;6.72;;;33.90;48.40;;;;;;4996486;28;20028;-66
2021/06/22 09:38:52;;;;;;;41.13;6.50;;;33.70;48.30;;;;;;4998667;28;20109;-67
2021/06/22 09:41:33;;;;;;;55.60;7.88;;;33.70;48.30;;;;;;5015926;28;20539;-66
2021/06/22 09:44:21;;;;;;;47.30;7.47;;;33.50;48.40;;;;;;5015476;28;20361;-64
2021/06/22 09:46:49;;;;;;;49.65;7.35;;;33.30;48.30;;;;;;4985682;28;20064;-66
2021/06/22 09:49:35;;;;;;;44.72;7.05;;;33.30;48.20;;;;;;5015537;28;20018;-72
2021/06/22 09:52:10;;;;;;;57.08;8.70;;;33.30;48.60;;;;;;4971417;28;20022;-67
2021/06/22 09:54:36;;;;;;;65.10;8.65;;;33.20;48.70;;;;;;4997464;28;20026;-67
2021/06/22 09:57:06;;;;;;;50.85;7.43;;;33.30;48.50;;;;;;5015069;28;20109;-67
2021/06/22 10:00:04;;;;;;;48.85;8.20;;;33.30;48.00;;;;;;4997812;28;20349;-65
2021/06/22 10:02:46;;;;;;;48.63;8.15;;;33.30;48.00;;;;;;4995060;28;20033;-67
2021/06/22 10:05:16;;;;;;;49.25;10.20;;;33.30;48.40;;;;;;5014760;28;20028;-65
2021/06/22 10:07:42;;;;;;;60.28;8.57;;;33.40;49.00;;;;;;4997146;28;20057;-67
2021/06/22 10:10:08;;;;;;;62.35;9.70;;;33.60;48.10;;;;;;5014640;28;20030;-67
2021/06/22 10:12:40;;;;;;;56.03;7.90;;;33.60;48.30;;;;;;5014659;28;20117;-68
2021/06/22 10:15:07;;;;;;;59.15;8.57;;;33.60;48.00;;;;;;4997459;28;20064;-68
2021/06/22 10:17:33;;;;;;;52.17;7.32;;;33.80;48.10;;;;;;4996925;28;20061;-68
2021/06/22 10:20:02;;;;;;;60.10;7.72;;;33.90;47.90;;;;;;5014647;28;20026;-68
2021/06/22 10:22:31;;;;;;;60.50;8.93;;;33.90;47.80;;;;;;4996758;28;20476;-68
2021/06/22 10:24:59;;;;;;;64.68;8.40;;;33.80;47.80;;;;;;4997148;28;20030;-74
2021/06/22 10:27:27;;;;;;;56.45;8.75;;;33.60;48.30;;;;;;5014305;28;20476;-65
2021/06/22 10:29:59;;;;;;;60.50;9.38;;;33.50;48.20;;;;;;4997050;28;20120;-67
2021/06/22 10:32:27;;;;;;;62.75;8.45;;;33.40;48.50;;;;;;4996458;28;20468;-67
2021/06/22 10:34:59;;;;;;;62.78;9.30;;;33.60;48.70;;;;;;4997234;28;20032;-68
2021/06/22 10:37:34;;;;;;;60.00;9.13;;;33.60;48.50;;;;;;4996790;28;20121;-70
2021/06/22 10:40:14;;;;;;;54.20;8.43;;;33.50;48.10;;;;;;4996656;28;20028;-67
2021/06/22 10:42:44;;;;;;;65.32;9.27;;;33.40;48.30;;;;;;5014219;28;20026;-66
2021/06/22 10:45:12;;;;;;;64.28;9.95;;;33.30;48.10;;;;;;5014147;28;20113;-65
2021/06/22 10:47:42;;;;;;;67.13;9.63;;;33.30;48.40;;;;;;4996237;28;20092;-73
2021/06/22 10:50:13;;;;;;;59.53;9.38;;;33.30;49.10;;;;;;4996494;28;20476;-67
2021/06/22 10:52:45;;;;;;;68.38;9.93;;;33.50;49.20;;;;;;5014283;28;20026;-67
2021/06/22 10:55:21;;;;;;;67.00;12.68;;;33.40;48.00;;;;;;4996285;28;20388;-66
2021/06/22 10:58:08;;;;;;;56.67;10.25;;;33.30;48.60;;;;;;4996249;28;20034;-68
2021/06/22 11:00:43;;;;;;;79.50;15.27;;;33.10;49.00;;;;;;4984113;28;20058;-68
2021/06/22 11:03:28;;;;;;;76.78;10.32;;;33.10;49.60;;;;;;4992810;28;20113;-66
2021/06/22 11:06:12;;;;;;;73.60;9.88;;;32.90;48.90;;;;;;5006056;28;20037;-67
2021/06/22 11:08:43;;;;;;;64.85;10.75;;;32.50;49.60;;;;;;5012131;28;20040;-67
2021/06/22 11:11:09;;;;;;;76.38;10.95;;;32.20;51.10;;;;;;4993917;28;20076;-68
2021/06/22 11:13:41;;;;;;;77.28;11.20;;;32.10;50.80;;;;;;4994205;28;20061;-67
2021/06/22 11:16:19;;;;;;;75.93;10.68;;;31.90;51.00;;;;;;4984463;28;20108;-68
2021/06/22 11:18:59;;;;;;;73.13;11.25;;;31.60;51.80;;;;;;4993954;28;20499;-68
2021/06/22 11:21:35;;;;;;;75.07;10.68;;;31.40;52.00;;;;;;4994177;28;20021;-69
2021/06/22 11:24:31;;;;;;;81.43;10.63;;;31.30;51.70;;;;;;5012305;28;20444;-71
2021/06/22 11:27:00;;;;;;;76.03;11.20;;;31.10;52.00;;;;;;5013460;28;20123;-67
2021/06/22 11:29:32;;;;;;;83.90;12.00;;;31.10;51.70;;;;;;5013514;28;20022;-72
2021/06/22 11:32:01;;;;;;;83.35;12.70;;;31.00;51.50;;;;;;5013404;28;20048;-68
2021/06/22 11:34:35;;;;;;;102.00;11.82;;;30.90;52.30;;;;;;4995657;28;20480;-65
2021/06/22 11:37:09;;;;;;;94.20;12.23;;;31.00;52.20;;;;;;4995947;28;20072;-67
2021/06/22 11:39:36;;;;;;;73.03;11.82;;;30.80;51.90;;;;;;5013110;28;20104;-66
2021/06/22 11:42:08;;;;;;;90.07;11.43;;;30.80;51.70;;;;;;4995639;28;20026;-69
2021/06/22 11:44:42;;;;;;;78.70;11.75;;;30.70;51.70;;;;;;4995910;28;20064;-66
2021/06/22 11:47:31;;;;;;;86.03;11.23;;;30.60;51.70;;;;;;5013319;28;20030;-67
2021/06/22 11:49:59;;;;;;;91.03;12.15;;;30.60;51.30;;;;;;5013025;28;20026;-67
2021/06/22 11:52:37;;;;;;;78.53;11.93;;;30.50;51.70;;;;;;4995562;28;20037;-67
2021/06/22 11:55:14;;;;;;;94.45;12.85;;;30.60;51.60;;;;;;5013206;28;20033;-68
2021/06/22 11:57:44;;;;;;;73.10;11.02;;;30.50;51.50;;;;;;4995633;28;20026;-66
2021/06/22 12:00:14;;;;;;;71.85;11.15;;;30.50;51.70;;;;;;5015877;28;20022;-67
2021/06/22 12:02:48;;;;;;;87.68;10.57;;;30.60;51.90;;;;;;4999754;28;20033;-67
2021/06/22 12:05:15;;;;;;;87.72;11.40;;;30.60;51.40;;;;;;5017042;28;20022;-67
2021/06/22 12:07:48;;;;;;;102.82;14.57;;;30.60;51.50;;;;;;4992536;28;20498;-67
2021/06/22 12:10:15;;;;;;;87.03;11.77;;;30.60;52.20;;;;;;5003641;28;20029;-69
2021/06/22 12:12:48;;;;;;;71.90;12.68;;;30.50;51.90;;;;;;4999673;28;20045;-67
2021/06/22 12:15:26;;;;;;;100.93;13.13;;;30.60;52.00;;;;;;5017287;28;20365;-72
2021/06/22 12:17:52;;;;;;;78.57;10.85;;;30.70;51.50;;;;;;4999560;28;20083;-67
2021/06/22 12:20:23;;;;;;;83.03;12.40;;;30.60;51.10;;;;;;5016783;28;20419;-67
2021/06/22 12:23:06;;;;;;;87.82;12.00;;;30.60;51.70;;;;;;4998991;28;20030;-65
2021/06/22 12:25:40;;;;;;;74.53;10.77;;;30.60;51.90;;;;;;5016726;28;20025;-68
2021/06/22 12:28:06;;;;;;;87.35;11.70;;;30.50;52.20;;;;;;4999002;28;20038;-65
2021/06/22 12:30:41;;;;;;;83.85;10.98;;;30.60;52.80;;;;;;4983403;28;20030;-64
2021/06/22 12:33:13;;;;;;;88.35;11.57;;;30.70;52.90;;;;;;4989471;28;20021;-67
2021/06/22 12:35:41;;;;;;;89.05;11.38;;;30.70;53.00;;;;;;5016450;28;20049;-65
2021/06/22 12:38:09;;;;;;;77.88;11.10;;;30.60;53.40;;;;;;5016136;28;20038;-66
2021/06/22 12:40:54;;;;;;;94.05;10.68;;;30.50;53.50;;;;;;4998952;28;20026;-67
2021/06/22 12:43:20;;;;;;;;;;;30.50;54.20;;;;;;5016975;28;20026;-66